createdAt,value
2017-09-10T00:00:07.795Z,99.63
2017-09-10T00:02:35.318Z,99.68
2017-09-10T00:05:02.826Z,99.52
2017-09-10T00:07:30.341Z,99.21
2017-09-10T00:09:57.852Z,99.56
2017-09-10T00:12:25.364Z,99.24
2017-09-10T00:14:52.896Z,99.76
2017-09-10T00:17:20.402Z,99.28
2017-09-10T00:19:47.897Z,98.63
2017-09-10T00:22:15.442Z,98.39
2017-09-10T00:24:42.943Z,98.82
2017-09-10T00:27:10.455Z,98.64
2017-09-10T00:29:37.965Z,99.44
2017-09-10T00:32:05.462Z,99.93
2017-09-10T00:34:32.980Z,99.50
2017-09-10T00:37:00.498Z,99.44
2017-09-10T00:39:27.994Z,99.38
2017-09-10T00:41:55.507Z,99.20
2017-09-10T00:44:23.195Z,99.27
2017-09-10T00:46:50.727Z,98.89
2017-09-10T00:49:18.258Z,99.40
2017-09-10T00:51:45.767Z,99.79
2017-09-10T00:54:13.379Z,99.79
2017-09-10T00:56:40.891Z,99.35
2017-09-10T00:59:08.445Z,99.33
2017-09-10T01:01:35.955Z,99.32
2017-09-10T01:04:03.510Z,99.94
2017-09-10T01:06:31.015Z,99.36
2017-09-10T01:08:58.535Z,99.27
2017-09-10T01:11:26.048Z,98.70
2017-09-10T01:13:53.574Z,99.12
2017-09-10T01:16:21.103Z,99.50
2017-09-10T01:18:48.615Z,99.41
2017-09-10T01:21:16.120Z,99.67
2017-09-10T01:23:43.634Z,100.00
2017-09-10T01:26:11.152Z,100.00
2017-09-10T01:28:38.670Z,100.00
2017-09-10T01:31:06.197Z,100.00
2017-09-10T01:33:33.718Z,100.00
2017-09-10T01:36:01.232Z,100.00
2017-09-10T01:38:28.759Z,99.05
2017-09-10T01:40:56.274Z,99.23
2017-09-10T01:43:23.785Z,97.54
2017-09-10T01:45:51.297Z,96.78
2017-09-10T01:48:18.800Z,97.30
2017-09-10T01:50:46.314Z,96.97
2017-09-10T01:53:13.819Z,97.63
2017-09-10T01:55:41.381Z,98.11
2017-09-10T01:58:08.896Z,97.11
2017-09-10T02:00:36.422Z,97.62
2017-09-10T02:03:03.936Z,97.89
2017-09-10T02:05:31.454Z,97.79
2017-09-10T02:07:58.959Z,97.46
2017-09-10T02:10:26.469Z,98.37
2017-09-10T02:12:53.989Z,99.20
2017-09-10T02:15:21.522Z,100.00
2017-09-10T02:17:49.036Z,100.00
2017-09-10T02:20:16.543Z,100.00
2017-09-10T02:22:44.064Z,100.00
2017-09-10T02:25:11.582Z,100.00
2017-09-10T02:27:39.095Z,99.84
2017-09-10T02:30:06.604Z,99.89
2017-09-10T02:32:34.116Z,99.72
2017-09-10T02:35:01.624Z,100.00
2017-09-10T02:37:29.146Z,100.00
2017-09-10T02:39:56.690Z,100.00
2017-09-10T02:42:24.197Z,100.00
2017-09-10T02:44:51.731Z,100.00
2017-09-10T02:47:19.244Z,99.92
2017-09-10T02:49:46.767Z,99.80
2017-09-10T02:52:14.270Z,99.86
2017-09-10T02:54:41.869Z,100.00
2017-09-10T02:57:09.393Z,99.99
2017-09-10T02:59:36.907Z,100.00
2017-09-10T03:02:04.415Z,100.00
2017-09-10T03:04:31.932Z,100.00
2017-09-10T03:06:59.431Z,100.00
2017-09-10T03:09:26.934Z,100.00
2017-09-10T03:11:54.477Z,100.00
2017-09-10T03:14:22.013Z,100.00
2017-09-10T03:16:49.519Z,100.00
2017-09-10T03:19:17.049Z,100.00
2017-09-10T03:21:44.586Z,100.00
2017-09-10T03:24:12.116Z,99.78
2017-09-10T03:26:39.642Z,97.86
2017-09-10T03:29:07.151Z,98.78
2017-09-10T03:31:34.658Z,99.74
2017-09-10T03:34:02.164Z,99.99
2017-09-10T03:36:29.674Z,99.68
2017-09-10T03:38:57.171Z,99.37
2017-09-10T03:41:24.712Z,99.63
2017-09-10T03:43:52.236Z,99.88
2017-09-10T03:46:19.735Z,97.86
2017-09-10T03:48:47.240Z,96.81
2017-09-10T03:51:14.752Z,97.31
2017-09-10T03:53:42.270Z,97.77
2017-09-10T03:56:09.796Z,98.11
2017-09-10T03:58:37.294Z,98.81
2017-09-10T04:01:04.812Z,97.57
2017-09-10T04:03:32.327Z,97.97
2017-09-10T04:05:59.837Z,98.03
2017-09-10T04:08:27.342Z,98.33
2017-09-10T04:10:54.884Z,97.69
2017-09-10T04:13:22.392Z,98.40
2017-09-10T04:15:49.915Z,97.36
2017-09-10T04:18:17.425Z,97.33
2017-09-10T04:20:44.947Z,99.45
2017-09-10T04:23:12.458Z,100.00
2017-09-10T04:25:39.977Z,100.00
2017-09-10T04:28:07.490Z,100.00
2017-09-10T04:30:35.005Z,99.42
2017-09-10T04:33:02.512Z,99.64
2017-09-10T04:35:30.035Z,99.18
2017-09-10T04:37:57.540Z,99.25
2017-09-10T04:40:25.077Z,99.60
2017-09-10T04:42:52.624Z,99.91
2017-09-10T04:45:20.124Z,99.97
2017-09-10T04:47:47.628Z,99.90
2017-09-10T04:50:15.554Z,99.97
2017-09-10T04:52:43.216Z,100.00
2017-09-10T04:55:10.731Z,100.00
2017-09-10T04:57:38.251Z,100.00
2017-09-10T05:00:05.777Z,100.00
2017-09-10T05:02:33.312Z,99.49
2017-09-10T05:05:00.820Z,98.82
2017-09-10T05:07:28.405Z,99.10
2017-09-10T05:09:55.916Z,99.93
2017-09-10T05:12:23.429Z,100.00
2017-09-10T05:14:50.948Z,100.00
2017-09-10T05:17:18.637Z,100.00
2017-09-10T05:19:46.151Z,99.90
2017-09-10T05:22:13.680Z,100.00
2017-09-10T05:24:41.203Z,99.72
2017-09-10T05:27:08.720Z,99.54
2017-09-10T05:29:36.242Z,99.59
2017-09-10T05:32:03.763Z,99.75
2017-09-10T05:34:31.284Z,99.48
2017-09-10T05:36:58.788Z,98.87
2017-09-10T05:39:26.310Z,98.83
2017-09-10T05:41:53.826Z,99.40
2017-09-10T05:44:21.336Z,99.18
2017-09-10T05:46:48.838Z,99.21
2017-09-10T05:49:16.339Z,98.88
2017-09-10T05:51:43.861Z,98.92
2017-09-10T05:54:11.390Z,97.95
2017-09-10T05:56:38.902Z,97.90
2017-09-10T05:59:06.426Z,97.15
2017-09-10T06:01:33.941Z,97.81
2017-09-10T06:04:01.481Z,98.16
2017-09-10T06:06:28.992Z,97.91
2017-09-10T06:08:56.493Z,97.73
2017-09-10T06:11:23.997Z,97.94
2017-09-10T06:13:51.507Z,97.76
2017-09-10T06:16:19.043Z,96.71
2017-09-10T06:18:46.538Z,96.66
2017-09-10T06:21:14.065Z,97.71
2017-09-10T06:23:41.574Z,97.62
2017-09-10T06:26:09.077Z,97.46
2017-09-10T06:28:36.579Z,95.66
2017-09-10T06:31:04.091Z,95.08
2017-09-10T06:33:31.622Z,92.37
2017-09-10T06:35:59.160Z,89.28
2017-09-10T06:38:26.687Z,90.18
2017-09-10T06:40:54.192Z,87.58
2017-09-10T06:43:21.699Z,89.62
2017-09-10T06:45:49.326Z,92.58
2017-09-10T06:48:16.928Z,93.30
2017-09-10T06:50:44.469Z,92.89
2017-09-10T06:53:11.971Z,93.25
2017-09-10T06:55:39.483Z,92.46
2017-09-10T06:58:07.002Z,92.51
2017-09-10T07:00:34.515Z,92.26
2017-09-10T07:03:02.033Z,91.96
2017-09-10T07:05:29.534Z,87.46
2017-09-10T07:07:57.037Z,89.86
2017-09-10T07:10:24.564Z,90.39
2017-09-10T07:12:52.080Z,87.18
2017-09-10T07:15:19.606Z,86.13
2017-09-10T07:17:47.121Z,85.26
2017-09-10T07:20:14.618Z,85.09
2017-09-10T07:22:42.141Z,86.60
2017-09-10T07:25:09.671Z,87.28
2017-09-10T07:27:37.181Z,86.83
2017-09-10T07:30:04.727Z,84.03
2017-09-10T07:32:32.247Z,85.27
2017-09-10T07:34:59.758Z,84.38
2017-09-10T07:37:27.275Z,85.93
2017-09-10T07:39:54.794Z,84.15
2017-09-10T07:42:22.315Z,87.38
2017-09-10T07:44:49.832Z,87.19
2017-09-10T07:47:17.336Z,83.98
2017-09-10T07:49:44.856Z,86.06
2017-09-10T07:52:12.420Z,87.38
2017-09-10T07:54:39.929Z,85.73
2017-09-10T07:57:07.436Z,88.48
2017-09-10T07:59:34.940Z,85.95
2017-09-10T08:02:02.455Z,85.44
2017-09-10T08:04:29.965Z,84.62
2017-09-10T08:06:57.486Z,86.27
2017-09-10T08:09:24.994Z,86.89
2017-09-10T08:11:52.520Z,83.51
2017-09-10T08:14:20.047Z,85.96
2017-09-10T08:16:47.555Z,86.20
2017-09-10T08:19:15.086Z,86.69
2017-09-10T08:21:42.600Z,84.10
2017-09-10T08:24:10.144Z,84.69
2017-09-10T08:26:37.648Z,85.75
2017-09-10T08:29:05.213Z,82.37
2017-09-10T08:31:32.732Z,82.20
2017-09-10T08:34:00.251Z,84.32
2017-09-10T08:36:27.772Z,82.77
2017-09-10T08:38:55.303Z,84.97
2017-09-10T08:41:22.812Z,84.11
2017-09-10T08:43:50.343Z,83.91
2017-09-10T08:46:17.867Z,82.50
2017-09-10T08:48:45.938Z,82.95
2017-09-10T08:51:13.454Z,83.33
2017-09-10T08:53:40.968Z,79.19
2017-09-10T08:56:08.479Z,79.31
2017-09-10T08:58:35.990Z,74.68
2017-09-10T09:01:03.503Z,76.51
2017-09-10T09:03:31.033Z,77.38
2017-09-10T09:05:58.599Z,79.14
2017-09-10T09:08:26.111Z,79.67
2017-09-10T09:10:53.632Z,74.15
2017-09-10T09:13:21.152Z,74.08
2017-09-10T09:15:48.685Z,72.63
2017-09-10T09:18:16.212Z,73.89
2017-09-10T09:20:43.755Z,71.43
2017-09-10T09:23:11.328Z,73.74
2017-09-10T09:25:38.856Z,70.28
2017-09-10T09:28:06.402Z,67.44
2017-09-10T09:30:33.916Z,63.56
2017-09-10T09:33:01.448Z,60.53
2017-09-10T09:35:28.974Z,56.58
2017-09-10T09:37:56.524Z,59.66
2017-09-10T09:40:24.071Z,63.93
2017-09-10T09:42:51.588Z,57.13
2017-09-10T09:45:19.129Z,63.01
2017-09-10T09:47:46.663Z,60.07
2017-09-10T09:50:14.177Z,55.21
2017-09-10T09:52:41.696Z,56.09
2017-09-10T09:55:09.223Z,59.31
2017-09-10T09:57:36.804Z,57.03
2017-09-10T10:00:04.311Z,49.82
2017-09-10T10:02:31.835Z,52.75
2017-09-10T10:04:59.370Z,53.16
2017-09-10T10:07:26.879Z,50.04
2017-09-10T10:09:54.393Z,48.56
2017-09-10T10:12:21.894Z,53.25
2017-09-10T10:14:49.415Z,52.06
2017-09-10T10:17:16.943Z,53.06
2017-09-10T10:19:44.458Z,61.54
2017-09-10T10:22:11.972Z,60.29
2017-09-10T10:24:39.512Z,56.94
2017-09-10T10:27:07.022Z,53.50
2017-09-10T10:29:34.539Z,52.51
2017-09-10T10:32:02.071Z,55.33
2017-09-10T10:34:30.229Z,58.92
2017-09-10T10:36:57.768Z,61.45
2017-09-10T10:39:25.315Z,62.22
2017-09-10T10:41:52.822Z,60.96
2017-09-10T10:44:20.345Z,54.25
2017-09-10T10:46:47.872Z,53.77
2017-09-10T10:49:15.392Z,53.57
2017-09-10T10:51:42.904Z,56.53
2017-09-10T10:54:10.417Z,59.42
2017-09-10T10:56:37.931Z,67.06
2017-09-10T10:59:05.452Z,61.13
2017-09-10T11:01:32.979Z,59.78
2017-09-10T11:04:00.525Z,56.99
2017-09-10T11:06:28.058Z,60.26
2017-09-10T11:08:55.564Z,59.85
2017-09-10T11:11:23.101Z,56.44
2017-09-10T11:13:50.601Z,45.89
2017-09-10T11:16:18.124Z,39.49
2017-09-10T11:18:45.652Z,33.87
2017-09-10T11:21:13.214Z,30.99
2017-09-10T11:23:40.739Z,25.71
2017-09-10T11:26:08.263Z,24.94
2017-09-10T11:28:35.873Z,28.90
2017-09-10T11:31:03.384Z,33.24
2017-09-10T11:33:30.895Z,31.55
2017-09-10T11:35:58.398Z,25.02
2017-09-10T11:38:26.785Z,28.48
2017-09-10T11:40:54.298Z,34.75
2017-09-10T11:43:21.806Z,33.57
2017-09-10T11:45:49.312Z,27.22
2017-09-10T11:48:16.951Z,25.50
2017-09-10T11:50:44.585Z,29.99
2017-09-10T11:53:12.115Z,28.09
2017-09-10T11:55:39.615Z,27.67
2017-09-10T11:58:07.135Z,28.60
2017-09-10T12:00:34.764Z,30.07
2017-09-10T12:03:02.318Z,27.20
2017-09-10T12:05:29.826Z,25.34
2017-09-10T12:07:57.403Z,26.40
2017-09-10T12:10:24.898Z,30.81
2017-09-10T12:12:52.427Z,29.60
2017-09-10T12:15:19.938Z,27.87
2017-09-10T12:17:47.482Z,24.72
2017-09-10T12:20:15.020Z,29.94
2017-09-10T12:22:42.573Z,32.60
2017-09-10T12:25:10.101Z,26.12
2017-09-10T12:27:37.622Z,26.89
2017-09-10T12:30:05.139Z,26.66
2017-09-10T12:32:32.664Z,22.33
2017-09-10T12:35:00.191Z,21.99
2017-09-10T12:37:27.717Z,21.87
2017-09-10T12:39:55.215Z,22.86
2017-09-10T12:42:22.727Z,27.92
2017-09-10T12:44:50.262Z,23.40
2017-09-10T12:47:17.793Z,21.15
2017-09-10T12:49:45.367Z,22.95
2017-09-10T12:52:12.907Z,24.04
2017-09-10T12:54:40.431Z,21.17
2017-09-10T12:57:07.937Z,26.29
2017-09-10T12:59:35.472Z,29.38
2017-09-10T13:02:03.040Z,24.39
2017-09-10T13:04:30.567Z,23.38
2017-09-10T13:06:58.067Z,28.47
2017-09-10T13:09:25.596Z,28.59
2017-09-10T13:11:53.122Z,26.29
2017-09-10T13:14:20.632Z,24.14
2017-09-10T13:16:48.161Z,24.96
2017-09-10T13:19:15.727Z,28.44
2017-09-10T13:21:43.244Z,30.06
2017-09-10T13:24:10.881Z,28.88
2017-09-10T13:26:38.395Z,29.60
2017-09-10T13:29:05.911Z,34.36
2017-09-10T13:31:33.416Z,28.84
2017-09-10T13:34:00.956Z,35.13
2017-09-10T13:36:28.462Z,34.43
2017-09-10T13:38:55.968Z,33.36
2017-09-10T13:41:23.489Z,28.64
2017-09-10T13:43:51.012Z,26.71
2017-09-10T13:46:18.530Z,24.27
2017-09-10T13:48:46.041Z,28.32
2017-09-10T13:51:13.579Z,26.76
2017-09-10T13:53:41.091Z,29.95
2017-09-10T13:56:08.679Z,30.23
2017-09-10T13:58:36.200Z,25.13
2017-09-10T14:01:03.726Z,23.87
2017-09-10T14:03:31.262Z,27.60
2017-09-10T14:05:58.781Z,33.29
2017-09-10T14:08:26.375Z,33.81
2017-09-10T14:10:53.928Z,34.45
2017-09-10T14:13:21.550Z,33.56
2017-09-10T14:15:49.071Z,30.49
2017-09-10T14:18:16.619Z,30.49
2017-09-10T14:20:44.152Z,32.23
2017-09-10T14:23:11.695Z,39.10
2017-09-10T14:25:39.212Z,42.42
2017-09-10T14:28:06.796Z,43.73
2017-09-10T14:30:34.324Z,47.63
2017-09-10T14:33:01.836Z,48.79
2017-09-10T14:35:29.369Z,48.37
2017-09-10T14:37:56.886Z,50.44
2017-09-10T14:40:24.436Z,54.91
2017-09-10T14:42:51.943Z,51.75
2017-09-10T14:45:19.464Z,50.35
2017-09-10T14:47:46.964Z,51.67
2017-09-10T14:50:14.487Z,50.45
2017-09-10T14:52:42.054Z,47.12
2017-09-10T14:55:09.579Z,46.28
2017-09-10T14:57:37.142Z,51.52
2017-09-10T15:00:04.640Z,55.27
2017-09-10T15:02:32.159Z,55.53
2017-09-10T15:04:59.688Z,54.68
2017-09-10T15:07:27.260Z,51.80
2017-09-10T15:09:54.764Z,52.67
2017-09-10T15:12:22.347Z,51.57
2017-09-10T15:14:49.867Z,50.42
2017-09-10T15:17:17.383Z,51.07
2017-09-10T15:19:44.898Z,50.16
2017-09-10T15:22:12.421Z,50.95
2017-09-10T15:24:39.952Z,51.55
2017-09-10T15:27:07.471Z,50.62
2017-09-10T15:29:35.044Z,52.55
2017-09-10T15:32:02.547Z,51.37
2017-09-10T15:34:30.058Z,51.15
2017-09-10T15:36:57.563Z,50.54
2017-09-10T15:39:25.076Z,54.08
2017-09-10T15:41:52.595Z,55.98
2017-09-10T15:44:21.940Z,55.09
2017-09-10T15:46:49.447Z,56.70
2017-09-10T15:49:17.057Z,54.51
2017-09-10T15:51:44.562Z,55.56
2017-09-10T15:54:12.072Z,51.75
2017-09-10T15:56:39.608Z,52.50
2017-09-10T15:59:07.132Z,49.77
2017-09-10T16:01:34.683Z,50.10
2017-09-10T16:04:02.211Z,55.21
2017-09-10T16:06:29.716Z,57.75
2017-09-10T16:08:57.226Z,57.05
2017-09-10T16:11:24.728Z,55.05
2017-09-10T16:13:52.223Z,59.49
2017-09-10T16:16:19.723Z,66.30
2017-09-10T16:18:47.249Z,68.50
2017-09-10T16:21:14.770Z,67.50
2017-09-10T16:23:42.334Z,67.35
2017-09-10T16:26:09.871Z,68.02
2017-09-10T16:28:37.403Z,68.82
2017-09-10T16:31:04.936Z,69.57
2017-09-10T16:33:32.471Z,68.78
2017-09-10T16:35:59.990Z,69.38
2017-09-10T16:38:27.621Z,69.89
2017-09-10T16:40:55.136Z,71.28
2017-09-10T16:43:22.666Z,70.67
2017-09-10T16:45:50.188Z,70.09
2017-09-10T16:48:17.703Z,71.22
2017-09-10T16:50:45.229Z,66.63
2017-09-10T16:53:12.779Z,66.68
2017-09-10T16:55:40.429Z,67.42
2017-09-10T16:58:07.941Z,67.14
2017-09-10T17:00:35.653Z,68.47
2017-09-10T17:03:03.155Z,69.26
2017-09-10T17:05:30.690Z,71.33
2017-09-10T17:07:58.204Z,72.97
2017-09-10T17:10:25.796Z,73.30
2017-09-10T17:12:53.309Z,75.09
2017-09-10T17:15:20.852Z,78.07
2017-09-10T17:17:48.356Z,78.56
2017-09-10T17:20:15.875Z,81.23
2017-09-10T17:22:43.383Z,80.25
2017-09-10T17:25:10.908Z,80.89
2017-09-10T17:27:38.431Z,79.64
2017-09-10T17:30:05.968Z,80.44
2017-09-10T17:32:33.475Z,80.54
2017-09-10T17:35:01.015Z,79.20
2017-09-10T17:37:28.622Z,81.92
2017-09-10T17:39:56.203Z,80.59
2017-09-10T17:42:23.747Z,80.10
2017-09-10T17:44:51.263Z,80.74
2017-09-10T17:47:18.809Z,82.41
2017-09-10T17:49:46.460Z,82.75
2017-09-10T17:52:13.975Z,83.69
2017-09-10T17:54:41.491Z,84.55
2017-09-10T17:57:09.041Z,85.06
2017-09-10T17:59:36.589Z,85.17
2017-09-10T18:02:04.147Z,84.55
2017-09-10T18:04:31.694Z,84.59
2017-09-10T18:06:59.241Z,85.49
2017-09-10T18:09:26.757Z,85.62
2017-09-10T18:11:54.287Z,85.66
2017-09-10T18:14:21.811Z,85.97
2017-09-10T18:16:49.316Z,85.26
2017-09-10T18:19:16.833Z,86.01
2017-09-10T18:21:44.339Z,86.92
2017-09-10T18:24:11.867Z,87.02
2017-09-10T18:26:39.368Z,87.64
2017-09-10T18:29:06.888Z,88.55
2017-09-10T18:31:34.416Z,89.00
2017-09-10T18:34:01.927Z,88.49
2017-09-10T18:36:29.583Z,88.02
2017-09-10T18:38:57.130Z,88.67
2017-09-10T18:41:24.659Z,88.47
2017-09-10T18:43:52.158Z,88.21
2017-09-10T18:46:19.704Z,89.26
2017-09-10T18:48:47.230Z,89.36
2017-09-10T18:51:14.765Z,89.87
2017-09-10T18:53:42.313Z,90.74
2017-09-10T18:56:09.866Z,91.03
2017-09-10T18:58:37.372Z,90.96
2017-09-10T19:01:04.887Z,90.84
2017-09-10T19:03:32.389Z,90.76
2017-09-10T19:05:59.895Z,90.17
2017-09-10T19:08:27.412Z,90.96
2017-09-10T19:10:54.963Z,90.78
2017-09-10T19:13:22.519Z,90.78
2017-09-10T19:15:50.061Z,90.78
2017-09-10T19:18:17.579Z,91.37
2017-09-10T19:20:45.219Z,91.13
2017-09-10T19:23:12.730Z,90.77
2017-09-10T19:25:40.231Z,91.37
2017-09-10T19:28:07.748Z,91.44
2017-09-10T19:30:35.283Z,91.94
2017-09-10T19:33:02.792Z,92.49
2017-09-10T19:35:30.340Z,93.08
2017-09-10T19:37:57.979Z,93.33
2017-09-10T19:40:25.509Z,92.96
2017-09-10T19:42:53.028Z,93.00
2017-09-10T19:45:20.564Z,93.68
2017-09-10T19:47:48.098Z,93.15
2017-09-10T19:50:15.657Z,93.13
2017-09-10T19:52:43.365Z,91.55
2017-09-10T19:55:10.876Z,93.24
2017-09-10T19:57:38.449Z,92.30
2017-09-10T20:00:05.963Z,92.77
2017-09-10T20:02:33.572Z,93.12
2017-09-10T20:05:01.096Z,94.07
2017-09-10T20:07:28.616Z,94.67
2017-09-10T20:09:56.793Z,94.42
2017-09-10T20:12:24.316Z,94.40
2017-09-10T20:14:51.831Z,94.24
2017-09-10T20:17:19.382Z,94.15
2017-09-10T20:19:46.915Z,93.31
2017-09-10T20:22:14.554Z,93.58
2017-09-10T20:24:42.067Z,93.32
2017-09-10T20:27:09.591Z,93.28
2017-09-10T20:29:37.137Z,93.43
2017-09-10T20:32:04.653Z,94.13
2017-09-10T20:34:32.168Z,93.69
2017-09-10T20:36:59.693Z,94.28
2017-09-10T20:39:27.214Z,94.51
2017-09-10T20:41:54.720Z,93.36
2017-09-10T20:44:22.291Z,92.40
2017-09-10T20:46:49.815Z,91.68
2017-09-10T20:49:17.408Z,92.03
2017-09-10T20:51:44.921Z,93.11
2017-09-10T20:54:12.468Z,93.64
2017-09-10T20:56:40.006Z,93.09
2017-09-10T20:59:07.557Z,92.97
2017-09-10T21:01:35.100Z,93.26
2017-09-10T21:04:02.649Z,92.66
2017-09-10T21:06:30.199Z,92.05
2017-09-10T21:08:57.730Z,92.74
2017-09-10T21:11:25.239Z,92.56
2017-09-10T21:13:52.780Z,92.98
2017-09-10T21:16:20.288Z,92.56
2017-09-10T21:18:47.796Z,92.46
2017-09-10T21:21:15.304Z,92.68
2017-09-10T21:23:42.909Z,93.64
2017-09-10T21:26:10.410Z,93.47
2017-09-10T21:28:38.024Z,93.01
2017-09-10T21:31:05.585Z,91.76
2017-09-10T21:33:33.084Z,92.71
2017-09-10T21:36:00.588Z,93.05
2017-09-10T21:38:28.123Z,93.34
2017-09-10T21:40:55.660Z,93.16
2017-09-10T21:43:23.199Z,93.36
2017-09-10T21:45:50.707Z,93.67
2017-09-10T21:48:18.218Z,94.77
2017-09-10T21:50:45.722Z,94.72
2017-09-10T21:53:13.239Z,95.11
2017-09-10T21:55:40.742Z,95.58
2017-09-10T21:58:08.321Z,95.25
2017-09-10T22:00:35.829Z,95.25
2017-09-10T22:03:03.356Z,94.25
2017-09-10T22:05:30.871Z,94.72
2017-09-10T22:07:58.389Z,95.11
2017-09-10T22:10:25.905Z,95.22
2017-09-10T22:12:53.411Z,95.70
2017-09-10T22:15:21.015Z,95.29
2017-09-10T22:17:48.587Z,94.71
2017-09-10T22:20:16.087Z,95.00
2017-09-10T22:22:43.703Z,95.50
2017-09-10T22:25:11.200Z,95.23
2017-09-10T22:27:38.718Z,95.51
2017-09-10T22:30:06.276Z,95.42
2017-09-10T22:32:34.111Z,95.26
2017-09-10T22:35:01.635Z,95.46
2017-09-10T22:37:29.136Z,96.05
2017-09-10T22:39:56.900Z,95.48
2017-09-10T22:42:24.403Z,95.69
2017-09-10T22:44:51.899Z,94.89
2017-09-10T22:47:19.402Z,95.11
2017-09-10T22:49:46.930Z,95.12
2017-09-10T22:52:14.451Z,95.40
2017-09-10T22:54:41.954Z,95.43
2017-09-10T22:57:09.517Z,95.06
2017-09-10T22:59:37.022Z,95.83
2017-09-10T23:02:04.518Z,95.98
2017-09-10T23:04:32.016Z,96.56
2017-09-10T23:06:59.524Z,96.34
2017-09-10T23:09:29.847Z,96.33
2017-09-10T23:11:57.351Z,96.52
2017-09-10T23:14:24.862Z,96.66
2017-09-10T23:16:52.396Z,95.93
2017-09-10T23:19:19.904Z,95.90
2017-09-10T23:21:47.424Z,95.27
2017-09-10T23:24:14.948Z,95.77
2017-09-10T23:26:42.468Z,94.96
2017-09-10T23:29:09.976Z,95.40
2017-09-10T23:31:37.481Z,93.95
2017-09-10T23:34:05.005Z,93.68
2017-09-10T23:36:32.499Z,94.78
2017-09-10T23:38:59.997Z,95.48
2017-09-10T23:41:27.505Z,95.37
2017-09-10T23:43:55.010Z,95.46
2017-09-10T23:46:22.511Z,95.90
2017-09-10T23:48:50.006Z,96.57
2017-09-10T23:51:17.503Z,96.85
2017-09-10T23:53:45.024Z,95.97
2017-09-10T23:56:12.524Z,96.39
2017-09-10T23:58:40.023Z,96.16
